sensor_id;sensor_type;location;lat;lon;timestamp;P1;durP1;ratioP1;P2;durP2;ratioP2
74309;SDS011;62722;51.142;17.052;2022-10-03T00:00:39;6.28;;;1.70;;
74309;SDS011;62722;51.142;17.052;2022-10-03T00:03:29;5.10;;;1.90;;
74309;SDS011;62722;51.142;17.052;2022-10-03T00:06:08;8.60;;;2.13;;
74309;SDS011;62722;51.142;17.052;2022-10-03T00:08:47;5.22;;;1.92;;
74309;SDS011;62722;51.142;17.052;2022-10-03T00:11:27;4.82;;;2.20;;
74309;SDS011;62722;51.142;17.052;2022-10-03T00:14:03;7.20;;;2.10;;
74309;SDS011;62722;51.142;17.052;2022-10-03T00:16:41;9.68;;;2.25;;
74309;SDS011;62722;51.142;17.052;2022-10-03T00:19:19;4.85;;;2.03;;
74309;SDS011;62722;51.142;17.052;2022-10-03T00:22:01;6.70;;;2.10;;
74309;SDS011;62722;51.142;17.052;2022-10-03T00:24:47;4.85;;;2.00;;
74309;SDS011;62722;51.142;17.052;2022-10-03T00:27:26;4.07;;;1.75;;
74309;SDS011;62722;51.142;17.052;2022-10-03T00:30:01;6.32;;;2.08;;
74309;SDS011;62722;51.142;17.052;2022-10-03T00:32:56;6.07;;;1.95;;
74309;SDS011;62722;51.142;17.052;2022-10-03T00:35:43;6.75;;;2.33;;
74309;SDS011;62722;51.142;17.052;2022-10-03T00:41:19;4.93;;;2.00;;
74309;SDS011;62722;51.142;17.052;2022-10-03T00:53:13;5.75;;;1.70;;
74309;SDS011;62722;51.142;17.052;2022-10-03T00:55:56;7.18;;;2.20;;
74309;SDS011;62722;51.142;17.052;2022-10-03T00:58:45;7.60;;;2.15;;
74309;SDS011;62722;51.142;17.052;2022-10-03T01:01:21;6.10;;;2.00;;
74309;SDS011;62722;51.142;17.052;2022-10-03T01:03:59;6.68;;;1.50;;
74309;SDS011;62722;51.142;17.052;2022-10-03T01:06:39;5.90;;;1.85;;
74309;SDS011;62722;51.142;17.052;2022-10-03T01:09:21;6.72;;;1.95;;
74309;SDS011;62722;51.142;17.052;2022-10-03T01:12:08;3.88;;;1.80;;
74309;SDS011;62722;51.142;17.052;2022-10-03T01:14:55;5.00;;;1.90;;
74309;SDS011;62722;51.142;17.052;2022-10-03T01:17:41;3.97;;;1.80;;
74309;SDS011;62722;51.142;17.052;2022-10-03T01:20:31;6.47;;;2.13;;
74309;SDS011;62722;51.142;17.052;2022-10-03T01:26:06;5.75;;;1.73;;
74309;SDS011;62722;51.142;17.052;2022-10-03T01:28:47;8.05;;;2.60;;
74309;SDS011;62722;51.142;17.052;2022-10-03T01:31:40;5.55;;;1.75;;
74309;SDS011;62722;51.142;17.052;2022-10-03T01:34:15;6.95;;;2.10;;
74309;SDS011;62722;51.142;17.052;2022-10-03T01:36:54;7.32;;;2.15;;
74309;SDS011;62722;51.142;17.052;2022-10-03T01:39:35;4.45;;;1.67;;
74309;SDS011;62722;51.142;17.052;2022-10-03T01:42:15;5.50;;;1.95;;
74309;SDS011;62722;51.142;17.052;2022-10-03T01:44:54;6.45;;;1.90;;
74309;SDS011;62722;51.142;17.052;2022-10-03T01:47:30;5.93;;;2.47;;
74309;SDS011;62722;51.142;17.052;2022-10-03T01:50:06;6.55;;;1.92;;
74309;SDS011;62722;51.142;17.052;2022-10-03T01:52:44;5.15;;;2.08;;
74309;SDS011;62722;51.142;17.052;2022-10-03T01:55:19;6.47;;;1.88;;
74309;SDS011;62722;51.142;17.052;2022-10-03T01:57:56;6.43;;;2.20;;
74309;SDS011;62722;51.142;17.052;2022-10-03T02:00:34;4.53;;;2.00;;
74309;SDS011;62722;51.142;17.052;2022-10-03T02:03:13;7.22;;;2.53;;
74309;SDS011;62722;51.142;17.052;2022-10-03T02:05:47;7.15;;;1.98;;
74309;SDS011;62722;51.142;17.052;2022-10-03T02:08:26;8.95;;;2.30;;
74309;SDS011;62722;51.142;17.052;2022-10-03T02:13:37;7.40;;;2.80;;
74309;SDS011;62722;51.142;17.052;2022-10-03T02:16:15;5.10;;;2.20;;
74309;SDS011;62722;51.142;17.052;2022-10-03T02:18:57;5.43;;;1.92;;
74309;SDS011;62722;51.142;17.052;2022-10-03T02:21:29;7.50;;;2.30;;
74309;SDS011;62722;51.142;17.052;2022-10-03T02:24:03;8.05;;;2.55;;
74309;SDS011;62722;51.142;17.052;2022-10-03T02:30:03;8.35;;;2.22;;
74309;SDS011;62722;51.142;17.052;2022-10-03T02:32:55;6.18;;;2.17;;
74309;SDS011;62722;51.142;17.052;2022-10-03T02:41:58;9.05;;;2.30;;
74309;SDS011;62722;51.142;17.052;2022-10-03T02:50:55;4.85;;;2.20;;
74309;SDS011;62722;51.142;17.052;2022-10-03T02:59:56;9.15;;;2.55;;
74309;SDS011;62722;51.142;17.052;2022-10-03T03:02:53;11.13;;;3.22;;
74309;SDS011;62722;51.142;17.052;2022-10-03T03:05:44;4.65;;;2.45;;
74309;SDS011;62722;51.142;17.052;2022-10-03T03:08:53;7.13;;;2.50;;
74309;SDS011;62722;51.142;17.052;2022-10-03T03:14:38;8.18;;;2.63;;
74309;SDS011;62722;51.142;17.052;2022-10-03T03:17:22;7.55;;;2.20;;
74309;SDS011;62722;51.142;17.052;2022-10-03T03:20:01;4.65;;;2.30;;
74309;SDS011;62722;51.142;17.052;2022-10-03T03:22:45;7.28;;;2.65;;
74309;SDS011;62722;51.142;17.052;2022-10-03T03:25:37;8.48;;;3.03;;
74309;SDS011;62722;51.142;17.052;2022-10-03T03:28:25;9.32;;;2.80;;
74309;SDS011;62722;51.142;17.052;2022-10-03T03:31:02;11.43;;;2.88;;
74309;SDS011;62722;51.142;17.052;2022-10-03T03:33:39;12.38;;;3.05;;
74309;SDS011;62722;51.142;17.052;2022-10-03T03:36:22;7.13;;;2.45;;
74309;SDS011;62722;51.142;17.052;2022-10-03T03:38:58;8.65;;;3.47;;
74309;SDS011;62722;51.142;17.052;2022-10-03T03:41:52;7.68;;;2.60;;
74309;SDS011;62722;51.142;17.052;2022-10-03T03:44:46;6.28;;;2.45;;
74309;SDS011;62722;51.142;17.052;2022-10-03T03:47:33;6.95;;;2.50;;
74309;SDS011;62722;51.142;17.052;2022-10-03T03:50:26;10.23;;;2.53;;
74309;SDS011;62722;51.142;17.052;2022-10-03T03:53:23;10.95;;;2.25;;
74309;SDS011;62722;51.142;17.052;2022-10-03T03:56:23;7.88;;;2.10;;
74309;SDS011;62722;51.142;17.052;2022-10-03T03:59:07;5.82;;;2.58;;
74309;SDS011;62722;51.142;17.052;2022-10-03T04:01:54;8.73;;;2.30;;
74309;SDS011;62722;51.142;17.052;2022-10-03T04:04:38;8.10;;;2.35;;
74309;SDS011;62722;51.142;17.052;2022-10-03T04:07:16;7.90;;;3.35;;
74309;SDS011;62722;51.142;17.052;2022-10-03T04:10:04;7.95;;;2.20;;
74309;SDS011;62722;51.142;17.052;2022-10-03T04:12:46;6.93;;;2.58;;
74309;SDS011;62722;51.142;17.052;2022-10-03T04:15:31;6.10;;;2.08;;
74309;SDS011;62722;51.142;17.052;2022-10-03T04:18:10;7.70;;;2.30;;
74309;SDS011;62722;51.142;17.052;2022-10-03T04:21:23;8.75;;;2.35;;
74309;SDS011;62722;51.142;17.052;2022-10-03T04:24:10;7.32;;;2.45;;
74309;SDS011;62722;51.142;17.052;2022-10-03T04:27:03;8.02;;;3.00;;
74309;SDS011;62722;51.142;17.052;2022-10-03T04:32:24;6.30;;;2.00;;
74309;SDS011;62722;51.142;17.052;2022-10-03T04:35:12;4.75;;;1.73;;
74309;SDS011;62722;51.142;17.052;2022-10-03T04:37:56;7.15;;;2.05;;
74309;SDS011;62722;51.142;17.052;2022-10-03T04:40:40;6.05;;;1.88;;
74309;SDS011;62722;51.142;17.052;2022-10-03T04:43:14;6.47;;;1.95;;
74309;SDS011;62722;51.142;17.052;2022-10-03T04:45:57;7.57;;;2.17;;
74309;SDS011;62722;51.142;17.052;2022-10-03T04:48:38;7.57;;;2.03;;
74309;SDS011;62722;51.142;17.052;2022-10-03T04:51:15;7.90;;;2.05;;
74309;SDS011;62722;51.142;17.052;2022-10-03T04:53:52;6.10;;;2.00;;
74309;SDS011;62722;51.142;17.052;2022-10-03T04:56:33;6.65;;;2.08;;
74309;SDS011;62722;51.142;17.052;2022-10-03T04:59:10;9.23;;;2.38;;
74309;SDS011;62722;51.142;17.052;2022-10-03T05:01:51;6.00;;;1.80;;
74309;SDS011;62722;51.142;17.052;2022-10-03T05:04:25;6.15;;;2.03;;
74309;SDS011;62722;51.142;17.052;2022-10-03T05:07:00;6.50;;;1.90;;
74309;SDS011;62722;51.142;17.052;2022-10-03T05:09:39;7.43;;;2.58;;
74309;SDS011;62722;51.142;17.052;2022-10-03T05:12:16;3.25;;;1.70;;
74309;SDS011;62722;51.142;17.052;2022-10-03T05:17:29;6.55;;;2.00;;
74309;SDS011;62722;51.142;17.052;2022-10-03T05:20:16;8.77;;;2.42;;
74309;SDS011;62722;51.142;17.052;2022-10-03T05:22:53;5.90;;;1.90;;
74309;SDS011;62722;51.142;17.052;2022-10-03T05:25:31;7.90;;;2.28;;
74309;SDS011;62722;51.142;17.052;2022-10-03T05:28:14;10.52;;;2.97;;
74309;SDS011;62722;51.142;17.052;2022-10-03T05:30:48;7.35;;;1.90;;
74309;SDS011;62722;51.142;17.052;2022-10-03T05:33:24;5.85;;;2.28;;
74309;SDS011;62722;51.142;17.052;2022-10-03T05:36:07;9.85;;;2.50;;
74309;SDS011;62722;51.142;17.052;2022-10-03T05:38:48;12.52;;;2.97;;
74309;SDS011;62722;51.142;17.052;2022-10-03T05:41:27;8.25;;;2.83;;
74309;SDS011;62722;51.142;17.052;2022-10-03T05:44:02;8.65;;;3.13;;
74309;SDS011;62722;51.142;17.052;2022-10-03T05:46:38;8.38;;;3.00;;
74309;SDS011;62722;51.142;17.052;2022-10-03T05:52:14;13.07;;;3.17;;
74309;SDS011;62722;51.142;17.052;2022-10-03T05:55:01;5.85;;;2.25;;
74309;SDS011;62722;51.142;17.052;2022-10-03T05:58:05;7.47;;;2.45;;
74309;SDS011;62722;51.142;17.052;2022-10-03T06:00:50;5.50;;;2.20;;
74309;SDS011;62722;51.142;17.052;2022-10-03T06:06:28;7.47;;;2.53;;
74309;SDS011;62722;51.142;17.052;2022-10-03T06:09:24;6.68;;;1.98;;
74309;SDS011;62722;51.142;17.052;2022-10-03T06:12:08;6.05;;;2.35;;
74309;SDS011;62722;51.142;17.052;2022-10-03T06:14:49;6.28;;;2.40;;
74309;SDS011;62722;51.142;17.052;2022-10-03T06:20:39;4.53;;;2.10;;
74309;SDS011;62722;51.142;17.052;2022-10-03T06:26:43;5.90;;;2.50;;
74309;SDS011;62722;51.142;17.052;2022-10-03T06:32:38;7.63;;;2.20;;
74309;SDS011;62722;51.142;17.052;2022-10-03T06:35:46;8.57;;;2.40;;
74309;SDS011;62722;51.142;17.052;2022-10-03T06:45:23;4.07;;;1.75;;
74309;SDS011;62722;51.142;17.052;2022-10-03T06:48:15;6.55;;;2.15;;
74309;SDS011;62722;51.142;17.052;2022-10-03T06:51:03;6.43;;;1.83;;
74309;SDS011;62722;51.142;17.052;2022-10-03T06:53:58;5.97;;;2.17;;
74309;SDS011;62722;51.142;17.052;2022-10-03T06:56:45;8.10;;;2.08;;
74309;SDS011;62722;51.142;17.052;2022-10-03T06:59:29;5.90;;;2.20;;
74309;SDS011;62722;51.142;17.052;2022-10-03T07:02:24;5.90;;;2.55;;
74309;SDS011;62722;51.142;17.052;2022-10-03T07:08:16;5.68;;;2.20;;
74309;SDS011;62722;51.142;17.052;2022-10-03T07:11:14;6.35;;;2.03;;
74309;SDS011;62722;51.142;17.052;2022-10-03T07:14:04;7.32;;;1.90;;
74309;SDS011;62722;51.142;17.052;2022-10-03T07:17:02;4.65;;;1.60;;
74309;SDS011;62722;51.142;17.052;2022-10-03T07:19:56;6.07;;;1.88;;
74309;SDS011;62722;51.142;17.052;2022-10-03T07:22:48;4.47;;;2.03;;
74309;SDS011;62722;51.142;17.052;2022-10-03T07:29:08;6.25;;;2.05;;
74309;SDS011;62722;51.142;17.052;2022-10-03T07:35:09;6.57;;;2.35;;
74309;SDS011;62722;51.142;17.052;2022-10-03T07:38:27;7.03;;;2.17;;
74309;SDS011;62722;51.142;17.052;2022-10-03T07:51:11;5.18;;;2.10;;
74309;SDS011;62722;51.142;17.052;2022-10-03T07:53:45;4.82;;;1.98;;
74309;SDS011;62722;51.142;17.052;2022-10-03T07:57:03;5.80;;;1.80;;
74309;SDS011;62722;51.142;17.052;2022-10-03T08:00:03;3.42;;;1.55;;
74309;SDS011;62722;51.142;17.052;2022-10-03T08:02:45;5.22;;;1.70;;
74309;SDS011;62722;51.142;17.052;2022-10-03T08:05:36;3.35;;;1.90;;
74309;SDS011;62722;51.142;17.052;2022-10-03T08:08:19;3.78;;;2.10;;
74309;SDS011;62722;51.142;17.052;2022-10-03T08:11:06;3.15;;;1.80;;
74309;SDS011;62722;51.142;17.052;2022-10-03T08:13:53;4.93;;;2.00;;
74309;SDS011;62722;51.142;17.052;2022-10-03T08:16:40;6.50;;;2.20;;
74309;SDS011;62722;51.142;17.052;2022-10-03T08:19:44;5.30;;;1.80;;
74309;SDS011;62722;51.142;17.052;2022-10-03T08:22:34;5.88;;;1.80;;
74309;SDS011;62722;51.142;17.052;2022-10-03T08:25:17;5.80;;;1.98;;
74309;SDS011;62722;51.142;17.052;2022-10-03T08:27:58;4.38;;;1.80;;
74309;SDS011;62722;51.142;17.052;2022-10-03T08:30:48;3.30;;;1.60;;
74309;SDS011;62722;51.142;17.052;2022-10-03T08:33:47;4.45;;;1.33;;
74309;SDS011;62722;51.142;17.052;2022-10-03T08:36:33;3.45;;;1.42;;
74309;SDS011;62722;51.142;17.052;2022-10-03T08:39:34;5.05;;;1.15;;
74309;SDS011;62722;51.142;17.052;2022-10-03T08:42:25;2.72;;;1.13;;
74309;SDS011;62722;51.142;17.052;2022-10-03T08:48:34;4.47;;;1.60;;
74309;SDS011;62722;51.142;17.052;2022-10-03T08:54:35;4.03;;;1.60;;
74309;SDS011;62722;51.142;17.052;2022-10-03T08:57:21;5.63;;;1.90;;
74309;SDS011;62722;51.142;17.052;2022-10-03T09:00:06;3.88;;;1.70;;
74309;SDS011;62722;51.142;17.052;2022-10-03T09:02:57;4.18;;;1.50;;
74309;SDS011;62722;51.142;17.052;2022-10-03T09:05:55;3.88;;;1.30;;
74309;SDS011;62722;51.142;17.052;2022-10-03T09:11:54;6.25;;;1.77;;
74309;SDS011;62722;51.142;17.052;2022-10-03T09:14:48;4.95;;;1.88;;
74309;SDS011;62722;51.142;17.052;2022-10-03T09:17:32;3.88;;;1.52;;
74309;SDS011;62722;51.142;17.052;2022-10-03T09:32:28;5.85;;;2.00;;
74309;SDS011;62722;51.142;17.052;2022-10-03T09:35:24;3.50;;;1.70;;
74309;SDS011;62722;51.142;17.052;2022-10-03T09:38:14;3.15;;;1.50;;
74309;SDS011;62722;51.142;17.052;2022-10-03T09:41:22;3.15;;;1.90;;
74309;SDS011;62722;51.142;17.052;2022-10-03T09:44:18;3.85;;;1.60;;
74309;SDS011;62722;51.142;17.052;2022-10-03T09:47:03;2.70;;;1.40;;
74309;SDS011;62722;51.142;17.052;2022-10-03T09:50:11;3.47;;;1.63;;
74309;SDS011;62722;51.142;17.052;2022-10-03T09:53:09;3.33;;;1.30;;
74309;SDS011;62722;51.142;17.052;2022-10-03T09:56:05;4.78;;;1.60;;
74309;SDS011;62722;51.142;17.052;2022-10-03T09:59:09;5.55;;;1.80;;
74309;SDS011;62722;51.142;17.052;2022-10-03T10:01:55;4.80;;;1.50;;
74309;SDS011;62722;51.142;17.052;2022-10-03T10:04:44;5.88;;;1.40;;
74309;SDS011;62722;51.142;17.052;2022-10-03T10:13:27;5.75;;;1.92;;
74309;SDS011;62722;51.142;17.052;2022-10-03T10:16:16;4.65;;;1.52;;
74309;SDS011;62722;51.142;17.052;2022-10-03T10:25:24;4.43;;;1.40;;
74309;SDS011;62722;51.142;17.052;2022-10-03T10:37:40;4.68;;;1.20;;
74309;SDS011;62722;51.142;17.052;2022-10-03T10:43:47;3.17;;;1.30;;
74309;SDS011;62722;51.142;17.052;2022-10-03T10:46:49;6.30;;;1.60;;
74309;SDS011;62722;51.142;17.052;2022-10-03T10:56:04;3.13;;;1.70;;
74309;SDS011;62722;51.142;17.052;2022-10-03T11:18:04;4.35;;;1.70;;
74309;SDS011;62722;51.142;17.052;2022-10-03T11:21:03;8.02;;;1.80;;
74309;SDS011;62722;51.142;17.052;2022-10-03T11:24:01;5.10;;;1.92;;
74309;SDS011;62722;51.142;17.052;2022-10-03T11:26:58;5.15;;;1.85;;
74309;SDS011;62722;51.142;17.052;2022-10-03T11:33:00;5.75;;;1.98;;
74309;SDS011;62722;51.142;17.052;2022-10-03T11:36:10;4.65;;;1.40;;
74309;SDS011;62722;51.142;17.052;2022-10-03T11:41:35;4.97;;;1.70;;
74309;SDS011;62722;51.142;17.052;2022-10-03T11:44:15;2.75;;;1.60;;
74309;SDS011;62722;51.142;17.052;2022-10-03T11:46:59;5.53;;;2.03;;
74309;SDS011;62722;51.142;17.052;2022-10-03T11:53:06;6.30;;;1.63;;
74309;SDS011;62722;51.142;17.052;2022-10-03T11:55:40;3.78;;;1.45;;
74309;SDS011;62722;51.142;17.052;2022-10-03T11:58:19;3.10;;;1.30;;
74309;SDS011;62722;51.142;17.052;2022-10-03T12:00:58;3.47;;;1.40;;
74309;SDS011;62722;51.142;17.052;2022-10-03T12:03:43;4.00;;;1.30;;
74309;SDS011;62722;51.142;17.052;2022-10-03T12:06:20;4.20;;;1.40;;
74309;SDS011;62722;51.142;17.052;2022-10-03T12:09:28;4.00;;;1.30;;
74309;SDS011;62722;51.142;17.052;2022-10-03T12:12:09;3.88;;;1.52;;
74309;SDS011;62722;51.142;17.052;2022-10-03T12:14:44;2.30;;;1.15;;
74309;SDS011;62722;51.142;17.052;2022-10-03T12:17:16;4.20;;;1.80;;
74309;SDS011;62722;51.142;17.052;2022-10-03T12:19:56;4.60;;;1.50;;
74309;SDS011;62722;51.142;17.052;2022-10-03T12:22:36;3.90;;;1.80;;
74309;SDS011;62722;51.142;17.052;2022-10-03T12:25:17;6.15;;;1.73;;
74309;SDS011;62722;51.142;17.052;2022-10-03T12:27:50;5.93;;;1.80;;
74309;SDS011;62722;51.142;17.052;2022-10-03T12:30:27;6.22;;;1.75;;
74309;SDS011;62722;51.142;17.052;2022-10-03T12:33:09;4.03;;;1.50;;
74309;SDS011;62722;51.142;17.052;2022-10-03T12:35:48;5.13;;;2.10;;
74309;SDS011;62722;51.142;17.052;2022-10-03T12:38:29;4.45;;;1.38;;
74309;SDS011;62722;51.142;17.052;2022-10-03T12:41:13;4.70;;;1.83;;
74309;SDS011;62722;51.142;17.052;2022-10-03T12:43:51;4.88;;;1.65;;
74309;SDS011;62722;51.142;17.052;2022-10-03T12:46:33;5.03;;;1.63;;
74309;SDS011;62722;51.142;17.052;2022-10-03T12:49:10;3.45;;;1.70;;
74309;SDS011;62722;51.142;17.052;2022-10-03T12:51:48;3.38;;;1.60;;
74309;SDS011;62722;51.142;17.052;2022-10-03T12:54:28;5.35;;;1.90;;
74309;SDS011;62722;51.142;17.052;2022-10-03T12:57:10;4.72;;;1.50;;
74309;SDS011;62722;51.142;17.052;2022-10-03T12:59:58;4.20;;;1.70;;
74309;SDS011;62722;51.142;17.052;2022-10-03T13:02:32;4.03;;;1.73;;
74309;SDS011;62722;51.142;17.052;2022-10-03T13:05:24;3.85;;;1.50;;
74309;SDS011;62722;51.142;17.052;2022-10-03T13:08:00;6.50;;;1.90;;
74309;SDS011;62722;51.142;17.052;2022-10-03T13:10:33;5.35;;;1.80;;
74309;SDS011;62722;51.142;17.052;2022-10-03T13:13:14;8.15;;;1.70;;
74309;SDS011;62722;51.142;17.052;2022-10-03T13:16:11;7.03;;;1.85;;
74309;SDS011;62722;51.142;17.052;2022-10-03T13:18:47;4.45;;;2.00;;
74309;SDS011;62722;51.142;17.052;2022-10-03T13:21:22;11.00;;;1.80;;
74309;SDS011;62722;51.142;17.052;2022-10-03T13:24:01;4.63;;;1.70;;
74309;SDS011;62722;51.142;17.052;2022-10-03T13:26:37;3.75;;;1.63;;
74309;SDS011;62722;51.142;17.052;2022-10-03T13:29:18;6.53;;;1.70;;
74309;SDS011;62722;51.142;17.052;2022-10-03T13:32:02;3.88;;;1.52;;
74309;SDS011;62722;51.142;17.052;2022-10-03T13:34:52;4.85;;;1.88;;
74309;SDS011;62722;51.142;17.052;2022-10-03T13:38:01;6.40;;;1.98;;
74309;SDS011;62722;51.142;17.052;2022-10-03T13:40:41;4.43;;;1.60;;
74309;SDS011;62722;51.142;17.052;2022-10-03T13:43:12;4.25;;;1.85;;
74309;SDS011;62722;51.142;17.052;2022-10-03T13:45:46;6.40;;;1.98;;
74309;SDS011;62722;51.142;17.052;2022-10-03T13:48:17;4.93;;;1.67;;
74309;SDS011;62722;51.142;17.052;2022-10-03T13:50:47;4.70;;;1.80;;
74309;SDS011;62722;51.142;17.052;2022-10-03T13:53:27;6.72;;;2.50;;
74309;SDS011;62722;51.142;17.052;2022-10-03T13:56:16;4.90;;;1.50;;
74309;SDS011;62722;51.142;17.052;2022-10-03T13:58:57;4.75;;;2.08;;
74309;SDS011;62722;51.142;17.052;2022-10-03T14:01:36;6.22;;;1.77;;
74309;SDS011;62722;51.142;17.052;2022-10-03T14:04:18;5.45;;;1.83;;
74309;SDS011;62722;51.142;17.052;2022-10-03T14:09:45;9.45;;;2.70;;
74309;SDS011;62722;51.142;17.052;2022-10-03T14:12:40;7.47;;;3.08;;
74309;SDS011;62722;51.142;17.052;2022-10-03T14:15:19;5.85;;;2.22;;
74309;SDS011;62722;51.142;17.052;2022-10-03T14:17:55;7.05;;;2.35;;
74309;SDS011;62722;51.142;17.052;2022-10-03T14:20:31;5.70;;;2.03;;
74309;SDS011;62722;51.142;17.052;2022-10-03T14:23:16;4.50;;;1.60;;
74309;SDS011;62722;51.142;17.052;2022-10-03T14:25:54;5.25;;;1.63;;
74309;SDS011;62722;51.142;17.052;2022-10-03T14:28:27;7.63;;;2.10;;
74309;SDS011;62722;51.142;17.052;2022-10-03T14:31:03;4.10;;;1.60;;
74309;SDS011;62722;51.142;17.052;2022-10-03T14:33:44;3.33;;;1.48;;
74309;SDS011;62722;51.142;17.052;2022-10-03T14:36:21;4.45;;;1.67;;
74309;SDS011;62722;51.142;17.052;2022-10-03T14:39:00;5.53;;;1.75;;
74309;SDS011;62722;51.142;17.052;2022-10-03T14:41:43;7.90;;;1.73;;
74309;SDS011;62722;51.142;17.052;2022-10-03T14:44:16;4.50;;;1.60;;
74309;SDS011;62722;51.142;17.052;2022-10-03T14:46:49;5.40;;;1.50;;
74309;SDS011;62722;51.142;17.052;2022-10-03T14:49:24;5.65;;;1.90;;
74309;SDS011;62722;51.142;17.052;2022-10-03T14:51:55;7.05;;;2.20;;
74309;SDS011;62722;51.142;17.052;2022-10-03T14:54:26;6.05;;;1.80;;
74309;SDS011;62722;51.142;17.052;2022-10-03T14:56:56;5.90;;;2.00;;
74309;SDS011;62722;51.142;17.052;2022-10-03T14:59:25;4.22;;;1.58;;
74309;SDS011;62722;51.142;17.052;2022-10-03T15:01:59;4.70;;;1.58;;
74309;SDS011;62722;51.142;17.052;2022-10-03T15:04:31;6.55;;;1.77;;
74309;SDS011;62722;51.142;17.052;2022-10-03T15:07:02;6.70;;;1.60;;
74309;SDS011;62722;51.142;17.052;2022-10-03T15:09:31;5.07;;;1.83;;
74309;SDS011;62722;51.142;17.052;2022-10-03T15:12:08;5.13;;;2.05;;
74309;SDS011;62722;51.142;17.052;2022-10-03T15:14:39;5.05;;;1.65;;
74309;SDS011;62722;51.142;17.052;2022-10-03T15:17:15;5.10;;;1.90;;
74309;SDS011;62722;51.142;17.052;2022-10-03T15:19:47;6.43;;;1.77;;
74309;SDS011;62722;51.142;17.052;2022-10-03T15:22:30;5.88;;;1.75;;
74309;SDS011;62722;51.142;17.052;2022-10-03T15:25:02;5.45;;;1.80;;
74309;SDS011;62722;51.142;17.052;2022-10-03T15:27:32;6.65;;;1.50;;
74309;SDS011;62722;51.142;17.052;2022-10-03T15:30:02;4.05;;;1.60;;
74309;SDS011;62722;51.142;17.052;2022-10-03T15:32:32;5.63;;;1.60;;
74309;SDS011;62722;51.142;17.052;2022-10-03T15:35:05;5.80;;;1.63;;
74309;SDS011;62722;51.142;17.052;2022-10-03T15:37:34;7.22;;;1.52;;
74309;SDS011;62722;51.142;17.052;2022-10-03T15:40:06;6.90;;;1.90;;
74309;SDS011;62722;51.142;17.052;2022-10-03T15:42:46;5.38;;;1.42;;
74309;SDS011;62722;51.142;17.052;2022-10-03T15:45:17;5.22;;;1.65;;
74309;SDS011;62722;51.142;17.052;2022-10-03T15:47:49;4.85;;;1.40;;
74309;SDS011;62722;51.142;17.052;2022-10-03T15:50:20;7.32;;;1.45;;
74309;SDS011;62722;51.142;17.052;2022-10-03T15:52:51;5.82;;;1.77;;
74309;SDS011;62722;51.142;17.052;2022-10-03T15:55:23;4.00;;;1.40;;
74309;SDS011;62722;51.142;17.052;2022-10-03T15:57:53;4.88;;;1.50;;
74309;SDS011;62722;51.142;17.052;2022-10-03T16:00:26;4.60;;;1.40;;
74309;SDS011;62722;51.142;17.052;2022-10-03T16:03:03;7.30;;;1.80;;
74309;SDS011;62722;51.142;17.052;2022-10-03T16:05:44;4.10;;;1.63;;
74309;SDS011;62722;51.142;17.052;2022-10-03T16:08:21;4.03;;;1.33;;
74309;SDS011;62722;51.142;17.052;2022-10-03T16:10:56;5.78;;;1.70;;
74309;SDS011;62722;51.142;17.052;2022-10-03T16:13:32;3.65;;;1.33;;
74309;SDS011;62722;51.142;17.052;2022-10-03T16:16:11;4.00;;;1.33;;
74309;SDS011;62722;51.142;17.052;2022-10-03T16:18:44;5.13;;;1.52;;
74309;SDS011;62722;51.142;17.052;2022-10-03T16:21:21;5.72;;;1.70;;
74309;SDS011;62722;51.142;17.052;2022-10-03T16:23:58;5.78;;;2.10;;
74309;SDS011;62722;51.142;17.052;2022-10-03T16:26:28;5.13;;;1.85;;
74309;SDS011;62722;51.142;17.052;2022-10-03T16:29:00;6.85;;;1.65;;
74309;SDS011;62722;51.142;17.052;2022-10-03T16:31:37;5.18;;;1.60;;
74309;SDS011;62722;51.142;17.052;2022-10-03T16:34:11;4.20;;;1.40;;
74309;SDS011;62722;51.142;17.052;2022-10-03T16:36:42;5.82;;;1.50;;
74309;SDS011;62722;51.142;17.052;2022-10-03T16:39:17;6.20;;;2.05;;
74309;SDS011;62722;51.142;17.052;2022-10-03T16:41:47;7.22;;;2.10;;
74309;SDS011;62722;51.142;17.052;2022-10-03T16:44:22;7.60;;;2.00;;
74309;SDS011;62722;51.142;17.052;2022-10-03T16:46:51;4.90;;;1.35;;
74309;SDS011;62722;51.142;17.052;2022-10-03T16:49:26;7.00;;;2.15;;
74309;SDS011;62722;51.142;17.052;2022-10-03T16:52:18;4.88;;;2.10;;
74309;SDS011;62722;51.142;17.052;2022-10-03T16:54:54;4.90;;;1.90;;
74309;SDS011;62722;51.142;17.052;2022-10-03T16:57:27;7.15;;;1.77;;
74309;SDS011;62722;51.142;17.052;2022-10-03T16:59:58;5.47;;;2.00;;
74309;SDS011;62722;51.142;17.052;2022-10-03T17:02:31;10.40;;;2.58;;
74309;SDS011;62722;51.142;17.052;2022-10-03T17:05:00;7.35;;;1.88;;
74309;SDS011;62722;51.142;17.052;2022-10-03T17:07:35;7.07;;;2.53;;
74309;SDS011;62722;51.142;17.052;2022-10-03T17:10:16;6.47;;;1.95;;
74309;SDS011;62722;51.142;17.052;2022-10-03T17:12:52;9.38;;;2.55;;
74309;SDS011;62722;51.142;17.052;2022-10-03T17:15:26;8.10;;;2.10;;
74309;SDS011;62722;51.142;17.052;2022-10-03T17:17:56;7.70;;;2.60;;
74309;SDS011;62722;51.142;17.052;2022-10-03T17:20:35;7.75;;;2.55;;
74309;SDS011;62722;51.142;17.052;2022-10-03T17:23:09;8.57;;;2.70;;
74309;SDS011;62722;51.142;17.052;2022-10-03T17:25:46;7.07;;;1.88;;
74309;SDS011;62722;51.142;17.052;2022-10-03T17:28:26;8.60;;;2.63;;
74309;SDS011;62722;51.142;17.052;2022-10-03T17:31:03;7.63;;;2.50;;
74309;SDS011;62722;51.142;17.052;2022-10-03T17:33:34;7.60;;;2.33;;
74309;SDS011;62722;51.142;17.052;2022-10-03T17:36:20;11.60;;;2.50;;
74309;SDS011;62722;51.142;17.052;2022-10-03T17:39:09;7.95;;;2.75;;
74309;SDS011;62722;51.142;17.052;2022-10-03T17:41:49;8.85;;;2.33;;
74309;SDS011;62722;51.142;17.052;2022-10-03T17:44:24;5.22;;;2.75;;
74309;SDS011;62722;51.142;17.052;2022-10-03T17:47:01;9.95;;;2.97;;
74309;SDS011;62722;51.142;17.052;2022-10-03T17:49:49;9.93;;;3.47;;
74309;SDS011;62722;51.142;17.052;2022-10-03T17:52:24;8.73;;;3.22;;
74309;SDS011;62722;51.142;17.052;2022-10-03T17:54:54;9.70;;;3.50;;
74309;SDS011;62722;51.142;17.052;2022-10-03T17:57:27;8.45;;;3.10;;
74309;SDS011;62722;51.142;17.052;2022-10-03T17:59:59;8.65;;;3.00;;
74309;SDS011;62722;51.142;17.052;2022-10-03T18:02:34;12.27;;;3.30;;
74309;SDS011;62722;51.142;17.052;2022-10-03T18:05:11;6.78;;;2.63;;
74309;SDS011;62722;51.142;17.052;2022-10-03T18:07:41;10.98;;;3.17;;
74309;SDS011;62722;51.142;17.052;2022-10-03T18:10:19;11.48;;;3.25;;
74309;SDS011;62722;51.142;17.052;2022-10-03T18:12:49;7.32;;;3.15;;
74309;SDS011;62722;51.142;17.052;2022-10-03T18:15:22;7.88;;;3.10;;
74309;SDS011;62722;51.142;17.052;2022-10-03T18:20:59;9.73;;;3.10;;
74309;SDS011;62722;51.142;17.052;2022-10-03T18:26:04;8.13;;;2.78;;
74309;SDS011;62722;51.142;17.052;2022-10-03T18:28:39;8.00;;;2.78;;
74309;SDS011;62722;51.142;17.052;2022-10-03T18:31:14;6.15;;;2.85;;
74309;SDS011;62722;51.142;17.052;2022-10-03T18:33:44;6.80;;;2.58;;
74309;SDS011;62722;51.142;17.052;2022-10-03T18:36:17;7.68;;;2.92;;
74309;SDS011;62722;51.142;17.052;2022-10-03T18:38:48;6.60;;;2.50;;
74309;SDS011;62722;51.142;17.052;2022-10-03T18:41:20;7.55;;;2.65;;
74309;SDS011;62722;51.142;17.052;2022-10-03T18:43:50;5.95;;;2.58;;
74309;SDS011;62722;51.142;17.052;2022-10-03T18:46:24;7.03;;;2.20;;
74309;SDS011;62722;51.142;17.052;2022-10-03T18:48:59;5.20;;;2.45;;
74309;SDS011;62722;51.142;17.052;2022-10-03T18:51:32;7.68;;;2.30;;
74309;SDS011;62722;51.142;17.052;2022-10-03T18:54:03;7.32;;;2.72;;
74309;SDS011;62722;51.142;17.052;2022-10-03T18:56:41;7.40;;;2.25;;
74309;SDS011;62722;51.142;17.052;2022-10-03T18:59:15;10.00;;;2.38;;